Time;durP1;ratioP1;P1;durP2;ratioP2;P2;SDS_P1;SDS_P2;PMS_P1;PMS_P2;Temp;Humidity;BMP_temperature;BMP_pressure;BME280_temperature;BME280_humidity;BME280_pressure;Samples;Min_cycle;Max_cycle;Signal;HPM_P1;HPM_P2
2022/03/02 00:01:30;;;;;;;24.50;18.37;;;;;;;-148.33;100.00;56587.81;5029197;28;20076;-63
2022/03/02 00:03:56;;;;;;;23.77;17.77;;;;;;;-148.33;100.00;56587.81;5028972;28;20033;-62
2022/03/02 00:06:21;;;;;;;25.77;19.37;;;;;;;-148.33;100.00;56587.81;5029229;28;20029;-63
2022/03/02 00:08:46;;;;;;;24.20;18.37;;;;;;;-148.33;100.00;56587.81;5029394;28;20336;-63
2022/03/02 00:11:12;;;;;;;23.10;18.33;;;;;;;-148.33;100.00;56587.81;5029107;28;20091;-63
2022/03/02 00:13:39;;;;;;;22.03;18.90;;;;;;;-148.33;100.00;56587.81;5029143;28;20025;-63
2022/03/02 00:16:04;;;;;;;21.13;17.27;;;;;;;-148.33;100.00;56587.81;5029262;28;20473;-63
2022/03/02 00:18:30;;;;;;;23.30;18.50;;;;;;;-148.33;100.00;56587.81;5029105;28;20036;-63
2022/03/02 00:20:56;;;;;;;19.27;16.63;;;;;;;-148.33;100.00;56587.81;5029225;28;20436;-63
2022/03/02 00:23:21;;;;;;;22.43;18.00;;;;;;;-148.33;100.00;56587.81;5028984;28;20535;-62
2022/03/02 00:25:48;;;;;;;24.03;18.90;;;;;;;-148.33;100.00;56587.81;5029501;28;20061;-63
2022/03/02 00:28:13;;;;;;;22.27;17.63;;;;;;;-148.33;100.00;56587.81;5029053;28;20029;-63
2022/03/02 00:30:40;;;;;;;20.53;17.50;;;;;;;-148.33;100.00;56587.81;5028868;28;20053;-63
2022/03/02 00:33:07;;;;;;;25.30;17.10;;;;;;;-148.33;100.00;56587.81;5029212;28;20073;-62
2022/03/02 00:35:34;;;;;;;21.23;16.70;;;;;;;-148.33;100.00;56587.81;5029329;28;20040;-63
2022/03/02 00:38:00;;;;;;;21.77;17.37;;;;;;;-148.33;100.00;56587.81;5029573;28;20334;-63
2022/03/02 00:40:25;;;;;;;22.17;17.17;;;;;;;-148.33;100.00;56587.81;5029082;28;20025;-63
2022/03/02 00:42:51;;;;;;;19.67;16.90;;;;;;;-148.33;100.00;56587.81;5029318;28;20030;-61
2022/03/02 00:45:16;;;;;;;19.87;16.43;;;;;;;-148.33;100.00;56587.81;5029144;28;20057;-63
2022/03/02 00:47:42;;;;;;;22.13;17.10;;;;;;;-148.33;100.00;56587.81;5029075;28;20044;-63
2022/03/02 00:50:09;;;;;;;20.20;16.10;;;;;;;-148.33;100.00;56587.81;5028923;28;20030;-63
2022/03/02 00:52:34;;;;;;;22.97;17.63;;;;;;;-148.33;100.00;56587.81;5028985;28;20389;-62
2022/03/02 00:55:00;;;;;;;21.57;16.30;;;;;;;-148.33;100.00;56587.81;5032435;28;20108;-63
2022/03/02 00:57:25;;;;;;;18.43;16.37;;;;;;;-148.33;100.00;56587.81;5032766;28;20442;-63
2022/03/02 00:59:51;;;;;;;20.20;17.07;;;;;;;-148.33;100.00;56587.81;5032105;28;20065;-61
2022/03/02 01:02:16;;;;;;;21.67;17.27;;;;;;;-148.33;100.00;56587.81;5032451;28;20025;-63
2022/03/02 01:04:41;;;;;;;23.13;17.57;;;;;;;-148.33;100.00;56587.81;5032466;28;20095;-62
2022/03/02 01:07:07;;;;;;;21.57;18.20;;;;;;;-148.33;100.00;56587.81;5032327;28;20083;-63
2022/03/02 01:09:33;;;;;;;20.27;16.60;;;;;;;-148.33;100.00;56587.81;5032440;28;20044;-63
2022/03/02 01:11:59;;;;;;;21.33;16.80;;;;;;;-148.33;100.00;56587.81;5032260;28;20053;-63
2022/03/02 01:14:24;;;;;;;21.47;16.80;;;;;;;-148.33;100.00;56587.81;5035399;28;20028;-63
2022/03/02 01:16:50;;;;;;;23.77;18.27;;;;;;;-148.33;100.00;56587.81;5052234;28;20083;-63
2022/03/02 01:19:15;;;;;;;23.70;17.80;;;;;;;-148.33;100.00;56587.81;5051978;28;20458;-63
2022/03/02 01:21:41;;;;;;;23.63;17.93;;;;;;;-148.33;100.00;56587.81;5052203;28;20063;-63
2022/03/02 01:24:07;;;;;;;22.47;17.73;;;;;;;-148.33;100.00;56587.81;5051910;28;20112;-63
2022/03/02 01:26:36;;;;;;;21.47;17.03;;;;;;;-148.33;100.00;56587.81;5052087;28;20033;-63
2022/03/02 01:29:02;;;;;;;22.27;17.70;;;;;;;-148.33;100.00;56587.81;5051957;28;20032;-63
2022/03/02 01:31:28;;;;;;;21.30;17.23;;;;;;;-148.33;100.00;56587.81;5051683;28;20106;-63
2022/03/02 01:33:54;;;;;;;18.60;15.70;;;;;;;-148.33;100.00;56587.81;5051797;28;20032;-63
2022/03/02 01:36:20;;;;;;;18.90;16.00;;;;;;;-148.33;100.00;56587.81;5051978;28;20465;-63
2022/03/02 01:38:46;;;;;;;21.37;16.67;;;;;;;-148.33;100.00;56587.81;5051816;28;20021;-63
2022/03/02 01:41:16;;;;;;;19.83;16.33;;;;;;;-148.33;100.00;56587.81;5051755;28;20031;-63
2022/03/02 01:43:42;;;;;;;21.60;17.58;;;;;;;-148.33;100.00;56587.81;5051607;28;20021;-63
2022/03/02 01:46:08;;;;;;;23.53;17.73;;;;;;;-148.33;100.00;56587.81;5051615;28;20032;-63
2022/03/02 01:48:33;;;;;;;21.13;16.87;;;;;;;-148.33;100.00;56587.81;5051575;28;20488;-63
2022/03/02 01:50:58;;;;;;;23.20;16.77;;;;;;;-148.33;100.00;56587.81;5051540;28;20382;-63
2022/03/02 01:53:24;;;;;;;21.77;16.67;;;;;;;-148.33;100.00;56587.81;5051546;28;20435;-63
2022/03/02 01:55:49;;;;;;;22.33;15.93;;;;;;;-148.33;100.00;56587.81;5051411;28;20100;-63
2022/03/02 01:58:14;;;;;;;20.50;15.80;;;;;;;-148.33;100.00;56587.81;5051245;28;20516;-63
2022/03/02 02:00:40;;;;;;;21.63;16.53;;;;;;;-148.33;100.00;56587.81;5051311;28;20116;-63
2022/03/02 02:03:05;;;;;;;21.67;16.40;;;;;;;-148.33;100.00;56587.81;5051113;28;20037;-65
2022/03/02 02:05:30;;;;;;;18.73;15.23;;;;;;;-148.33;100.00;56587.81;5051024;28;20036;-63
2022/03/02 02:07:56;;;;;;;21.97;15.90;;;;;;;-148.33;100.00;56587.81;5051309;28;20367;-63
2022/03/02 02:10:21;;;;;;;19.03;15.23;;;;;;;-148.33;100.00;56587.81;5051136;28;20400;-63
2022/03/02 02:12:47;;;;;;;21.37;15.13;;;;;;;-148.33;100.00;56587.81;5051651;28;20039;-63
2022/03/02 02:15:13;;;;;;;18.70;15.40;;;;;;;-148.33;100.00;56587.81;5051240;28;20106;-64
2022/03/02 02:17:40;;;;;;;18.97;14.17;;;;;;;-148.33;100.00;56587.81;5051018;28;20025;-64
2022/03/02 02:20:07;;;;;;;19.47;14.73;;;;;;;-148.33;100.00;56587.81;5050752;28;20158;-63
2022/03/02 02:22:45;;;;;;;19.13;14.43;;;;;;;-148.33;100.00;56587.81;5050902;28;20037;-63
2022/03/02 02:25:11;;;;;;;21.13;15.60;;;;;;;-148.33;100.00;56587.81;5050672;28;20405;-63
2022/03/02 02:27:38;;;;;;;18.87;15.33;;;;;;;-148.33;100.00;56587.81;5050904;28;20049;-61
2022/03/02 02:30:05;;;;;;;18.60;14.53;;;;;;;-148.33;100.00;56587.81;5051247;28;20154;-62
2022/03/02 02:32:31;;;;;;;18.87;15.33;;;;;;;-148.33;100.00;56587.81;5050867;28;20079;-63
2022/03/02 02:34:59;;;;;;;20.37;16.27;;;;;;;-148.33;100.00;56587.81;5050603;28;20488;-63
2022/03/02 02:37:25;;;;;;;20.73;14.90;;;;;;;-148.33;100.00;56587.81;5050703;28;20052;-63
2022/03/02 02:40:00;;;;;;;18.70;15.73;;;;;;;-148.33;100.00;56587.81;5050823;28;20059;-63
2022/03/02 02:42:26;;;;;;;19.13;14.93;;;;;;;-148.33;100.00;56587.81;5050473;28;20396;-63
2022/03/02 02:44:53;;;;;;;20.47;14.60;;;;;;;-148.33;100.00;56587.81;5050752;28;20029;-63
2022/03/02 02:47:18;;;;;;;19.03;15.17;;;;;;;-148.33;100.00;56587.81;5050772;28;20040;-63
2022/03/02 02:49:43;;;;;;;19.23;15.00;;;;;;;-148.33;100.00;56587.81;5050284;28;20351;-64
2022/03/02 02:52:09;;;;;;;19.93;15.07;;;;;;;-148.33;100.00;56587.81;5050210;28;20100;-63
2022/03/02 02:54:34;;;;;;;20.13;16.20;;;;;;;-148.33;100.00;56587.81;5050565;28;20087;-64
2022/03/02 02:56:59;;;;;;;20.30;16.43;;;;;;;-148.33;100.00;56587.81;5050472;28;20032;-64
2022/03/02 02:59:25;;;;;;;19.63;15.13;;;;;;;-148.33;100.00;56587.81;5050733;28;20107;-64
2022/03/02 03:01:51;;;;;;;18.87;15.50;;;;;;;-148.33;100.00;56587.81;5050125;28;20107;-63
2022/03/02 03:04:16;;;;;;;21.23;16.23;;;;;;;-148.33;100.00;56587.81;5049845;28;20496;-63
2022/03/02 03:06:41;;;;;;;19.43;14.80;;;;;;;-148.33;100.00;56587.81;5050157;28;20115;-63
2022/03/02 03:09:07;;;;;;;18.33;15.20;;;;;;;-148.33;100.00;56587.81;5050002;28;20504;-62
2022/03/02 03:11:32;;;;;;;19.03;14.77;;;;;;;-148.33;100.00;56587.81;5050099;28;20029;-64
2022/03/02 03:13:58;;;;;;;18.80;14.93;;;;;;;-148.33;100.00;56587.81;5050043;28;20493;-63
2022/03/02 03:16:23;;;;;;;22.17;14.87;;;;;;;-148.33;100.00;56587.81;5049549;28;20090;-64
2022/03/02 03:18:49;;;;;;;18.03;14.10;;;;;;;-148.33;100.00;56587.81;5049201;28;20021;-63
2022/03/02 03:21:14;;;;;;;20.10;14.63;;;;;;;-148.33;100.00;56587.81;5030063;28;20067;-63
2022/03/02 03:23:40;;;;;;;18.03;14.73;;;;;;;-148.33;100.00;56587.81;5029713;28;20815;-64
2022/03/02 03:26:05;;;;;;;20.40;15.07;;;;;;;-148.33;100.00;56587.81;5029809;28;20075;-63
2022/03/02 03:28:30;;;;;;;21.07;15.60;;;;;;;-148.33;100.00;56587.81;5029871;28;20498;-63
2022/03/02 03:30:56;;;;;;;17.27;14.40;;;;;;;-148.33;100.00;56587.81;5029749;28;20255;-64
2022/03/02 03:33:21;;;;;;;19.03;15.70;;;;;;;-148.33;100.00;56587.81;5030046;28;20030;-64
2022/03/02 03:35:47;;;;;;;20.07;15.73;;;;;;;-148.33;100.00;56587.81;5029862;28;20029;-63
2022/03/02 03:38:12;;;;;;;18.83;15.47;;;;;;;-148.33;100.00;56587.81;5029717;28;20037;-64
2022/03/02 03:40:37;;;;;;;21.20;15.87;;;;;;;-148.33;100.00;56587.81;5029831;28;20029;-64
2022/03/02 03:43:03;;;;;;;21.93;14.70;;;;;;;-148.33;100.00;56587.81;5029545;28;20114;-64
2022/03/02 03:45:28;;;;;;;19.13;15.13;;;;;;;-148.33;100.00;56587.81;5047611;28;20029;-64
2022/03/02 03:47:54;;;;;;;18.40;15.43;;;;;;;-148.33;100.00;56587.81;5049239;28;20115;-64
2022/03/02 03:50:20;;;;;;;20.50;15.10;;;;;;;-148.33;100.00;56587.81;5049524;28;20052;-64
2022/03/02 03:52:46;;;;;;;19.33;15.77;;;;;;;-148.33;100.00;56587.81;5049497;28;20020;-64
2022/03/02 03:55:13;;;;;;;18.83;15.23;;;;;;;-148.33;100.00;56587.81;5049351;28;20025;-63
2022/03/02 03:57:38;;;;;;;23.13;15.87;;;;;;;-148.33;100.00;56587.81;5049337;28;20021;-64
2022/03/02 04:00:08;;;;;;;20.10;15.17;;;;;;;-148.33;100.00;56587.81;5049006;28;20028;-63
2022/03/02 04:02:33;;;;;;;18.20;15.33;;;;;;;-148.33;100.00;56587.81;5049188;28;20579;-62
2022/03/02 04:04:59;;;;;;;20.20;15.80;;;;;;;-148.33;100.00;56587.81;5049107;28;20156;-64
2022/03/02 04:07:24;;;;;;;23.10;14.93;;;;;;;-148.33;100.00;56587.81;5049344;28;20103;-64
2022/03/02 04:09:49;;;;;;;19.60;15.30;;;;;;;-148.33;100.00;56587.81;5049395;28;20164;-64
2022/03/02 04:12:17;;;;;;;18.57;14.40;;;;;;;-148.33;100.00;56587.81;5048846;28;20035;-64
2022/03/02 04:14:42;;;;;;;19.07;15.17;;;;;;;-148.33;100.00;56587.81;5049161;28;20033;-63
2022/03/02 04:17:07;;;;;;;20.67;16.17;;;;;;;-148.33;100.00;56587.81;5049722;28;20380;-63
2022/03/02 04:19:33;;;;;;;19.80;15.80;;;;;;;-148.33;100.00;56587.81;5048811;28;20060;-64
2022/03/02 04:21:58;;;;;;;18.83;16.07;;;;;;;-148.33;100.00;56587.81;5049110;28;20393;-63
2022/03/02 04:24:23;;;;;;;18.50;15.30;;;;;;;-148.33;100.00;56587.81;5048970;28;20098;-63
2022/03/02 04:26:49;;;;;;;19.77;14.23;;;;;;;-148.33;100.00;56587.81;5049119;28;20053;-64
2022/03/02 04:29:14;;;;;;;19.33;15.13;;;;;;;-148.33;100.00;56587.81;5051221;28;20029;-64
2022/03/02 04:31:39;;;;;;;20.13;15.27;;;;;;;-148.33;100.00;56587.81;5053096;28;20067;-64
2022/03/02 04:34:05;;;;;;;21.10;14.67;;;;;;;-148.33;100.00;56587.81;5052686;28;20025;-64
2022/03/02 04:36:30;;;;;;;24.23;16.83;;;;;;;-148.33;100.00;56587.81;5053132;28;20025;-63
2022/03/02 04:38:55;;;;;;;19.23;14.97;;;;;;;-148.33;100.00;56587.81;5053131;28;20060;-64
2022/03/02 04:41:21;;;;;;;21.73;15.80;;;;;;;-148.33;100.00;56587.81;5053005;28;20465;-64
2022/03/02 04:43:46;;;;;;;20.63;15.47;;;;;;;-148.33;100.00;56587.81;5052822;28;20086;-64
2022/03/02 04:46:11;;;;;;;22.87;15.90;;;;;;;-148.33;100.00;56587.81;5052776;28;20051;-64
2022/03/02 04:48:40;;;;;;;19.47;15.20;;;;;;;-148.33;100.00;56587.81;5053070;28;20381;-64
2022/03/02 04:51:05;;;;;;;17.60;14.53;;;;;;;-148.33;100.00;56587.81;5052586;28;20485;-63
2022/03/02 04:53:30;;;;;;;19.40;15.50;;;;;;;-148.33;100.00;56587.81;5052783;28;20114;-64
2022/03/02 04:55:56;;;;;;;23.10;14.83;;;;;;;-148.33;100.00;56587.81;5052569;28;20029;-62
2022/03/02 04:58:21;;;;;;;18.23;14.97;;;;;;;-148.33;100.00;56587.81;5052773;28;20452;-64
2022/03/02 05:00:47;;;;;;;19.57;15.13;;;;;;;-148.33;100.00;56587.81;5052485;28;20249;-64
2022/03/02 05:03:13;;;;;;;18.97;14.67;;;;;;;-148.33;100.00;56587.81;5052648;28;20028;-64
2022/03/02 05:05:38;;;;;;;19.43;15.67;;;;;;;-148.33;100.00;56587.81;5052227;28;20021;-64
2022/03/02 05:08:05;;;;;;;18.80;14.53;;;;;;;-148.33;100.00;56587.81;5052672;28;20040;-64
2022/03/02 05:10:34;;;;;;;18.40;15.10;;;;;;;-148.33;100.00;56587.81;5052560;28;20465;-64
2022/03/02 05:13:00;;;;;;;19.87;15.00;;;;;;;-148.33;100.00;56587.81;5052388;28;20373;-64
2022/03/02 05:15:26;;;;;;;20.67;15.30;;;;;;;-148.33;100.00;56587.81;5052338;28;20021;-64
2022/03/02 05:17:51;;;;;;;20.40;15.23;;;;;;;-148.33;100.00;56587.81;5052439;28;20029;-64
2022/03/02 05:20:19;;;;;;;18.57;14.83;;;;;;;-148.33;100.00;56587.81;5051831;28;20182;-64
2022/03/02 05:22:45;;;;;;;19.07;14.97;;;;;;;-148.33;100.00;56587.81;5052052;28;20024;-64
2022/03/02 05:25:12;;;;;;;20.67;15.77;;;;;;;-148.33;100.00;56587.81;5045129;28;20024;-64
2022/03/02 05:27:38;;;;;;;19.90;15.80;;;;;;;-148.33;100.00;56587.81;5033825;28;20025;-64
2022/03/02 05:30:05;;;;;;;21.33;15.60;;;;;;;-148.33;100.00;56587.81;5032001;28;20104;-64
2022/03/02 05:32:31;;;;;;;18.20;13.97;;;;;;;-148.33;100.00;56587.81;5031809;28;20175;-64
2022/03/02 05:34:56;;;;;;;19.53;14.57;;;;;;;-148.33;100.00;56587.81;5014130;28;20517;-64
2022/03/02 05:37:21;;;;;;;18.47;14.17;;;;;;;-148.33;100.00;56587.81;5031845;28;20025;-63
2022/03/02 05:39:47;;;;;;;19.00;15.20;;;;;;;-148.33;100.00;56587.81;5031222;28;20029;-63
2022/03/02 05:42:12;;;;;;;19.20;14.93;;;;;;;-148.33;100.00;56587.81;5031889;28;20559;-64
2022/03/02 05:44:38;;;;;;;18.50;13.90;;;;;;;-148.33;100.00;56587.81;5031657;28;20356;-63
2022/03/02 05:47:05;;;;;;;17.73;13.93;;;;;;;-148.33;100.00;56587.81;5031520;28;20025;-64
2022/03/02 05:49:31;;;;;;;20.30;15.50;;;;;;;-148.33;100.00;56587.81;5031986;28;20377;-63
2022/03/02 05:51:56;;;;;;;19.97;14.47;;;;;;;-148.33;100.00;56587.81;5031560;28;20026;-64
2022/03/02 05:54:22;;;;;;;16.67;14.03;;;;;;;-148.33;100.00;56587.81;5031614;28;20029;-64
2022/03/02 05:56:47;;;;;;;21.70;15.47;;;;;;;-148.33;100.00;56587.81;5031839;28;20104;-63
2022/03/02 05:59:14;;;;;;;18.07;13.47;;;;;;;-148.33;100.00;56587.81;5031445;28;20057;-63
2022/03/02 06:01:41;;;;;;;18.00;14.53;;;;;;;-148.33;100.00;56587.81;5043352;28;20061;-64
2022/03/02 06:04:07;;;;;;;18.03;14.13;;;;;;;-148.33;100.00;56587.81;5051033;28;20359;-63
2022/03/02 06:06:34;;;;;;;17.70;13.73;;;;;;;-148.33;100.00;56587.81;5040957;28;20061;-64
2022/03/02 06:09:00;;;;;;;18.37;14.47;;;;;;;-148.33;100.00;56587.81;5031317;28;20097;-64
2022/03/02 06:11:27;;;;;;;16.97;13.53;;;;;;;-148.33;100.00;56587.81;5031064;28;20029;-62
2022/03/02 06:13:53;;;;;;;17.57;14.00;;;;;;;-148.33;100.00;56587.81;5028582;28;20026;-64
2022/03/02 06:16:18;;;;;;;17.27;14.13;;;;;;;-148.33;100.00;56587.81;5035921;28;20033;-63
2022/03/02 06:18:44;;;;;;;15.67;13.43;;;;;;;-148.33;100.00;56587.81;5048114;28;20492;-63
2022/03/02 06:21:15;;;;;;;17.43;13.80;;;;;;;-148.33;100.00;56587.81;5047126;28;20104;-63
2022/03/02 06:23:40;;;;;;;18.55;13.55;;;;;;;-148.33;100.00;56587.81;5048114;28;20095;-64
2022/03/02 06:26:07;;;;;;;17.17;12.30;;;;;;;-148.33;100.00;56587.81;5051121;28;20404;-64
2022/03/02 06:28:32;;;;;;;16.67;12.17;;;;;;;-148.33;100.00;56587.81;5050974;28;20039;-63
2022/03/02 06:30:58;;;;;;;17.17;13.67;;;;;;;-148.33;100.00;56587.81;5049845;28;20501;-63
2022/03/02 06:33:23;;;;;;;14.97;12.30;;;;;;;-148.33;100.00;56587.81;5044042;28;20030;-64
2022/03/02 06:35:49;;;;;;;20.20;13.90;;;;;;;-148.33;100.00;56587.81;5044254;28;20428;-63
2022/03/02 06:38:14;;;;;;;18.07;13.70;;;;;;;-148.33;100.00;56587.81;5050203;28;20067;-64
2022/03/02 06:40:53;;;;;;;16.87;13.37;;;;;;;-148.33;100.00;56587.81;5040467;28;20026;-64
2022/03/02 06:43:22;;;;;;;19.03;12.50;;;;;;;-148.33;100.00;56587.81;5030403;28;20021;-63
2022/03/02 06:45:54;;;;;;;17.90;14.07;;;;;;;-148.33;100.00;56587.81;5030548;28;20032;-63
2022/03/02 06:48:21;;;;;;;18.77;13.43;;;;;;;-148.33;100.00;56587.81;5012503;28;20025;-62
2022/03/02 06:50:52;;;;;;;17.93;13.80;;;;;;;-148.33;100.00;56587.81;5029457;28;20029;-63
2022/03/02 06:53:22;;;;;;;17.27;14.43;;;;;;;-148.33;100.00;56587.81;5036295;28;20060;-63
2022/03/02 06:55:48;;;;;;;20.98;13.55;;;;;;;-148.33;100.00;56587.81;5049424;28;20044;-63
2022/03/02 06:58:14;;;;;;;20.10;14.23;;;;;;;-148.33;100.00;56587.81;5048736;28;20252;-63
2022/03/02 07:00:46;;;;;;;18.37;14.00;;;;;;;-148.33;100.00;56587.81;5032050;28;20021;-63
2022/03/02 07:03:14;;;;;;;19.60;14.80;;;;;;;-148.33;100.00;56587.81;5029255;28;20449;-62
2022/03/02 07:05:40;;;;;;;20.80;14.77;;;;;;;-148.33;100.00;56587.81;5044238;28;20025;-62
2022/03/02 07:08:08;;;;;;;21.50;13.37;;;;;;;-148.33;100.00;56587.81;5049345;28;20024;-63
2022/03/02 07:10:35;;;;;;;16.07;13.03;;;;;;;-148.33;100.00;56587.81;5047532;28;20100;-62
2022/03/02 07:13:03;;;;;;;21.60;14.17;;;;;;;-148.33;100.00;56587.81;5030034;28;20029;-62
2022/03/02 07:15:29;;;;;;;16.87;12.83;;;;;;;-148.33;100.00;56587.81;5029966;28;20036;-63
2022/03/02 07:17:55;;;;;;;18.37;13.30;;;;;;;-148.33;100.00;56587.81;5028335;28;20431;-63
2022/03/02 07:20:20;;;;;;;17.50;13.00;;;;;;;-148.33;100.00;56587.81;5029665;28;20036;-63
2022/03/02 07:22:52;;;;;;;17.20;12.03;;;;;;;-148.33;100.00;56587.81;5032862;28;20029;-63
2022/03/02 07:25:36;;;;;;;17.50;13.40;;;;;;;-148.33;100.00;56587.81;5049538;28;20032;-64
2022/03/02 07:28:02;;;;;;;20.80;13.40;;;;;;;-148.33;100.00;56587.81;5046868;28;20465;-64
2022/03/02 07:30:28;;;;;;;16.20;12.87;;;;;;;-148.33;100.00;56587.81;5048686;28;20017;-64
2022/03/02 07:33:01;;;;;;;19.67;12.60;;;;;;;-148.33;100.00;56587.81;5048667;28;20041;-64
2022/03/02 07:35:31;;;;;;;19.03;13.00;;;;;;;-148.33;100.00;56587.81;5041262;28;20040;-64
2022/03/02 07:37:57;;;;;;;17.23;12.97;;;;;;;-148.33;100.00;56587.81;5042103;28;20029;-64
2022/03/02 07:40:23;;;;;;;18.87;13.13;;;;;;;-148.33;100.00;56587.81;5048574;28;20037;-63
2022/03/02 07:42:49;;;;;;;18.10;12.87;;;;;;;-148.33;100.00;56587.81;5035063;28;20108;-64
2022/03/02 07:45:14;;;;;;;17.90;12.67;;;;;;;-148.33;100.00;56587.81;5039883;28;20040;-64
2022/03/02 07:47:40;;;;;;;17.63;12.93;;;;;;;-148.33;100.00;56587.81;5049477;28;20033;-64
2022/03/02 07:50:06;;;;;;;21.63;13.00;;;;;;;-148.33;100.00;56587.81;5049226;28;20048;-64
2022/03/02 07:52:35;;;;;;;14.87;11.50;;;;;;;-148.33;100.00;56587.81;5049374;28;20444;-64
2022/03/02 07:55:09;;;;;;;14.93;12.20;;;;;;;-148.33;100.00;56587.81;5049187;28;20033;-64
2022/03/02 07:57:38;;;;;;;16.43;12.37;;;;;;;-148.33;100.00;56587.81;5049152;28;20079;-63
2022/03/02 08:00:05;;;;;;;14.03;12.20;;;;;;;-148.33;100.00;56587.81;5048991;28;20029;-64
2022/03/02 08:02:31;;;;;;;16.80;12.30;;;;;;;-148.33;100.00;56587.81;5048899;28;20021;-61
2022/03/02 08:04:57;;;;;;;17.73;12.73;;;;;;;-148.33;100.00;56587.81;5049017;28;20044;-62
2022/03/02 08:07:23;;;;;;;14.13;12.03;;;;;;;-148.33;100.00;56587.81;5049175;28;20091;-62
2022/03/02 08:09:52;;;;;;;12.97;11.57;;;;;;;-148.33;100.00;56587.81;5048808;28;20048;-62
2022/03/02 08:12:21;;;;;;;15.23;12.27;;;;;;;-148.33;100.00;56587.81;5048797;28;20460;-62
2022/03/02 08:14:48;;;;;;;16.43;11.87;;;;;;;-148.33;100.00;56587.81;5031083;28;20020;-62
2022/03/02 08:17:13;;;;;;;14.93;11.70;;;;;;;-148.33;100.00;56587.81;5048866;28;20120;-62
2022/03/02 08:19:39;;;;;;;14.37;12.43;;;;;;;-148.33;100.00;56587.81;5048765;28;20497;-63
2022/03/02 08:22:09;;;;;;;15.23;11.10;;;;;;;-148.33;100.00;56587.81;5032290;28;20041;-62
2022/03/02 08:24:41;;;;;;;13.30;11.47;;;;;;;-148.33;100.00;56587.81;5028787;28;20044;-62
2022/03/02 08:27:09;;;;;;;15.45;11.35;;;;;;;-148.33;100.00;56587.81;5029222;28;20025;-62
2022/03/02 08:29:35;;;;;;;14.73;11.23;;;;;;;-148.33;100.00;56587.81;5028871;28;20403;-61
2022/03/02 08:32:03;;;;;;;19.05;11.82;;;;;;;-148.33;100.00;56587.81;5028957;28;20620;-62
2022/03/02 08:34:30;;;;;;;16.48;11.15;;;;;;;-148.33;100.00;56587.81;5030893;28;20032;-61
2022/03/02 08:36:56;;;;;;;14.23;11.18;;;;;;;-148.33;100.00;56587.81;5031088;28;20030;-61
2022/03/02 08:39:22;;;;;;;12.93;11.43;;;;;;;-148.33;100.00;56587.81;5045598;28;20098;-61
2022/03/02 08:41:48;;;;;;;16.55;12.00;;;;;;;-148.33;100.00;56587.81;5027225;28;20025;-62
2022/03/02 08:44:14;;;;;;;12.73;11.30;;;;;;;-148.33;100.00;56587.81;5049200;28;20060;-62
2022/03/02 08:46:41;;;;;;;13.93;10.82;;;;;;;-148.33;100.00;56587.81;5048450;28;20108;-62
2022/03/02 08:49:06;;;;;;;12.60;11.13;;;;;;;-148.33;100.00;56587.81;5043864;28;20036;-62
2022/03/02 08:51:34;;;;;;;12.85;9.95;;;;;;;-148.33;100.00;56587.81;5033045;28;20401;-62
2022/03/02 08:54:01;;;;;;;11.95;10.55;;;;;;;-148.33;100.00;56587.81;5044517;28;20097;-62
2022/03/02 08:56:27;;;;;;;13.25;11.20;;;;;;;-148.33;100.00;56587.81;5047286;28;20476;-62
2022/03/02 08:58:54;;;;;;;16.15;11.32;;;;;;;-148.33;100.00;56587.81;5047866;28;20087;-62
2022/03/02 09:01:20;;;;;;;12.57;10.73;;;;;;;-148.33;100.00;56587.81;5041603;28;20465;-62
2022/03/02 09:03:48;;;;;;;12.85;11.07;;;;;;;-148.33;100.00;56587.81;5048515;28;20025;-62
2022/03/02 09:06:15;;;;;;;13.70;10.52;;;;;;;-148.33;100.00;56587.81;5047700;28;20035;-61
2022/03/02 09:08:41;;;;;;;13.20;10.60;;;;;;;-148.33;100.00;56587.81;5045147;28;20025;-62
2022/03/02 09:11:08;;;;;;;13.48;11.07;;;;;;;-148.33;100.00;56587.81;5047727;28;20039;-62
2022/03/02 09:13:35;;;;;;;14.18;10.57;;;;;;;-148.33;100.00;56587.81;5048639;28;20024;-63
2022/03/02 09:16:00;;;;;;;13.50;10.88;;;;;;;-148.33;100.00;56587.81;5036641;28;20025;-62
2022/03/02 09:18:26;;;;;;;13.18;10.68;;;;;;;-148.33;100.00;56587.81;5052165;28;20047;-62
2022/03/02 09:20:57;;;;;;;12.38;10.48;;;;;;;-148.33;100.00;56587.81;5045922;28;20061;-62
2022/03/02 09:23:24;;;;;;;;;;;;;;;-148.33;100.00;56587.81;5037019;28;20474;-62
2022/03/02 09:25:50;;;;;;;11.30;10.07;;;;;;;-148.33;100.00;56587.81;5042454;28;20365;-62
2022/03/02 09:28:16;;;;;;;13.27;11.00;;;;;;;-148.33;100.00;56587.81;5045189;28;20104;-62
2022/03/02 09:30:43;;;;;;;16.73;10.52;;;;;;;-148.33;100.00;56587.81;5038384;28;20117;-61
2022/03/02 09:33:14;;;;;;;19.27;10.30;;;;;;;-148.33;100.00;56587.81;5031836;28;20464;-62
2022/03/02 09:35:40;;;;;;;15.32;10.57;;;;;;;-148.33;100.00;56587.81;5031182;28;20033;-63
2022/03/02 09:38:06;;;;;;;11.15;9.95;;;;;;;-148.33;100.00;56587.81;5031897;28;20453;-63
2022/03/02 09:40:31;;;;;;;12.02;9.75;;;;;;;-148.33;100.00;56587.81;5039570;28;20086;-63
2022/03/02 09:43:00;;;;;;;11.10;9.82;;;;;;;-148.33;100.00;56587.81;5051321;28;20033;-63
2022/03/02 09:45:28;;;;;;;12.10;10.38;;;;;;;-148.33;100.00;56587.81;5040338;28;20405;-63
2022/03/02 09:48:05;;;;;;;10.60;9.55;;;;;;;-148.33;100.00;56587.81;5046043;28;20036;-62
2022/03/02 09:50:34;;;;;;;15.68;10.30;;;;;;;-148.33;100.00;56587.81;5050322;28;20020;-63
2022/03/02 09:53:12;;;;;;;11.07;9.70;;;;;;;-148.33;100.00;56587.81;5050083;28;20028;-63
2022/03/02 09:55:42;;;;;;;13.65;10.43;;;;;;;-148.33;100.00;56587.81;5047156;28;20032;-63
2022/03/02 09:58:11;;;;;;;14.00;9.70;;;;;;;-148.33;100.00;56587.81;5050176;28;20434;-62
2022/03/02 10:00:37;;;;;;;13.38;10.73;;;;;;;-148.33;100.00;56587.81;5050313;28;20549;-63
2022/03/02 10:03:09;;;;;;;11.90;10.63;;;;;;;-148.33;100.00;56587.81;5039361;28;20040;-63
2022/03/02 10:05:34;;;;;;;12.82;9.95;;;;;;;-148.33;100.00;56587.81;5043025;28;20029;-63
2022/03/02 10:08:08;;;;;;;13.38;10.25;;;;;;;-148.33;100.00;56587.81;5049792;28;20024;-63
2022/03/02 10:10:36;;;;;;;11.30;9.85;;;;;;;-148.33;100.00;56587.81;5042865;28;20040;-63
2022/03/02 10:13:05;;;;;;;10.93;9.75;;;;;;;-148.33;100.00;56587.81;5041882;28;20067;-64
2022/03/02 10:15:31;;;;;;;11.02;9.50;;;;;;;-148.33;100.00;56587.81;5046899;28;20553;-64
2022/03/02 10:18:03;;;;;;;11.48;9.90;;;;;;;-148.33;100.00;56587.81;5046483;28;20504;-63
2022/03/02 10:20:29;;;;;;;;;;;;;;;-148.33;100.00;56587.81;5038528;28;20056;-61
2022/03/02 10:23:22;;;;;;;11.57;9.20;;;;;;;-148.33;100.00;56587.81;5045372;28;19912;-63
2022/03/02 10:26:19;;;;;;;11.27;9.35;;;;;;;-148.33;100.00;56587.81;5046576;28;20389;-63
2022/03/02 10:29:04;;;;;;;12.43;9.65;;;;;;;-148.33;100.00;56587.81;5036164;28;20037;-63
2022/03/02 10:31:48;;;;;;;10.82;9.55;;;;;;;-148.33;100.00;56587.81;5034716;28;20030;-64
2022/03/02 10:34:16;;;;;;;12.30;10.27;;;;;;;-148.33;100.00;56587.81;5010519;28;20038;-63
2022/03/02 10:36:43;;;;;;;10.95;9.85;;;;;;;-148.33;100.00;56587.81;5010018;28;20041;-63
2022/03/02 10:39:18;;;;;;;9.85;8.85;;;;;;;-148.33;100.00;56587.81;5010736;28;20080;-63
2022/03/02 10:41:45;;;;;;;9.30;8.40;;;;;;;-148.33;100.00;56587.81;5010614;28;20034;-63
2022/03/02 10:44:46;;;;;;;10.38;8.50;;;;;;;-148.33;100.00;56587.81;5012927;28;20025;-63
2022/03/02 10:47:17;;;;;;;9.98;8.85;;;;;;;-148.33;100.00;56587.81;5006312;28;20049;-64
2022/03/02 10:49:44;;;;;;;10.25;9.10;;;;;;;-148.33;100.00;56587.81;5010783;28;20022;-64
2022/03/02 10:52:14;;;;;;;10.07;9.05;;;;;;;-148.33;100.00;56587.81;5010357;28;20044;-64
2022/03/02 10:54:41;;;;;;;10.57;9.15;;;;;;;-148.33;100.00;56587.81;5010653;28;20442;-63